sensor_id;sensor_type;location;lat;lon;timestamp;pressure;altitude;pressure_sealevel;temperature;humidity
48846;BME280;34665;51.886;5.436;2023-02-02T00:01:32;101935.81;;;16.01;100.00
48846;BME280;34665;51.886;5.436;2023-02-02T00:03:58;101938.56;;;16.28;100.00
48846;BME280;34665;51.886;5.436;2023-02-02T00:06:27;101941.22;;;16.89;100.00
48846;BME280;34665;51.886;5.436;2023-02-02T00:08:55;101953.50;;;16.98;100.00
48846;BME280;34665;51.886;5.436;2023-02-02T00:11:21;101948.09;;;16.58;100.00
48846;BME280;34665;51.886;5.436;2023-02-02T00:13:46;101958.91;;;16.11;100.00
48846;BME280;34665;51.886;5.436;2023-02-02T00:18:53;101938.47;;;15.81;100.00
48846;BME280;34665;51.886;5.436;2023-02-02T00:21:21;101949.28;;;15.88;100.00
48846;BME280;34665;51.886;5.436;2023-02-02T00:23:47;101945.09;;;15.85;100.00
48846;BME280;34665;51.886;5.436;2023-02-02T00:26:12;101945.84;;;16.41;100.00
48846;BME280;34665;51.886;5.436;2023-02-02T00:28:38;101947.25;;;16.10;100.00
48846;BME280;34665;51.886;5.436;2023-02-02T00:31:03;101955.97;;;15.99;100.00
48846;BME280;34665;51.886;5.436;2023-02-02T00:33:29;101959.34;;;16.41;100.00
48846;BME280;34665;51.886;5.436;2023-02-02T00:35:54;101956.38;;;16.02;100.00
48846;BME280;34665;51.886;5.436;2023-02-02T00:38:21;101961.41;;;16.66;100.00
48846;BME280;34665;51.886;5.436;2023-02-02T00:40:47;101958.91;;;16.58;100.00
48846;BME280;34665;51.886;5.436;2023-02-02T00:43:13;101959.94;;;16.57;100.00
48846;BME280;34665;51.886;5.436;2023-02-02T00:45:39;101955.59;;;16.36;100.00
48846;BME280;34665;51.886;5.436;2023-02-02T00:48:04;101953.94;;;16.68;100.00
48846;BME280;34665;51.886;5.436;2023-02-02T00:50:30;101952.28;;;16.40;100.00
48846;BME280;34665;51.886;5.436;2023-02-02T00:52:57;101956.22;;;16.38;100.00
48846;BME280;34665;51.886;5.436;2023-02-02T00:55:25;101949.53;;;16.00;100.00
48846;BME280;34665;51.886;5.436;2023-02-02T00:57:51;101947.50;;;16.29;100.00
48846;BME280;34665;51.886;5.436;2023-02-02T01:00:21;101945.19;;;16.12;100.00
48846;BME280;34665;51.886;5.436;2023-02-02T01:02:49;101943.50;;;15.98;100.00
48846;BME280;34665;51.886;5.436;2023-02-02T01:05:15;101941.03;;;16.23;100.00
48846;BME280;34665;51.886;5.436;2023-02-02T01:07:42;101939.38;;;16.56;100.00
48846;BME280;34665;51.886;5.436;2023-02-02T01:10:12;101941.03;;;16.10;100.00
48846;BME280;34665;51.886;5.436;2023-02-02T01:12:39;101935.44;;;16.11;100.00
48846;BME280;34665;51.886;5.436;2023-02-02T01:15:05;101945.59;;;16.83;100.00
48846;BME280;34665;51.886;5.436;2023-02-02T01:17:32;101937.72;;;16.14;100.00
48846;BME280;34665;51.886;5.436;2023-02-02T01:19:57;101948.31;;;16.76;100.00
48846;BME280;34665;51.886;5.436;2023-02-02T01:22:24;101948.91;;;16.78;100.00
48846;BME280;34665;51.886;5.436;2023-02-02T01:24:49;101960.75;;;17.04;100.00
48846;BME280;34665;51.886;5.436;2023-02-02T01:27:15;101959.59;;;17.39;100.00
48846;BME280;34665;51.886;5.436;2023-02-02T01:29:41;101967.19;;;16.97;100.00
48846;BME280;34665;51.886;5.436;2023-02-02T01:32:06;101963.63;;;17.23;100.00
48846;BME280;34665;51.886;5.436;2023-02-02T01:34:32;101962.59;;;17.17;100.00
48846;BME280;34665;51.886;5.436;2023-02-02T01:36:57;101955.50;;;17.30;100.00
48846;BME280;34665;51.886;5.436;2023-02-02T01:39:24;101960.41;;;17.92;100.00
48846;BME280;34665;51.886;5.436;2023-02-02T01:41:50;101954.13;;;17.59;100.00
48846;BME280;34665;51.886;5.436;2023-02-02T01:47:21;101969.06;;;17.69;100.00
48846;BME280;34665;51.886;5.436;2023-02-02T01:49:48;101972.31;;;17.84;100.00
48846;BME280;34665;51.886;5.436;2023-02-02T01:52:17;101975.75;;;17.66;100.00
48846;BME280;34665;51.886;5.436;2023-02-02T01:54:49;101969.19;;;17.42;100.00
48846;BME280;34665;51.886;5.436;2023-02-02T01:59:47;101979.22;;;17.14;100.00
48846;BME280;34665;51.886;5.436;2023-02-02T02:02:13;101971.25;;;17.40;100.00
48846;BME280;34665;51.886;5.436;2023-02-02T02:04:40;101970.56;;;16.99;100.00
48846;BME280;34665;51.886;5.436;2023-02-02T02:07:07;101976.59;;;17.60;100.00
48846;BME280;34665;51.886;5.436;2023-02-02T02:09:33;101980.25;;;17.33;100.00
48846;BME280;34665;51.886;5.436;2023-02-02T02:11:59;101978.31;;;17.47;100.00
48846;BME280;34665;51.886;5.436;2023-02-02T02:14:26;101975.78;;;17.59;100.00
48846;BME280;34665;51.886;5.436;2023-02-02T02:37:49;101961.38;;;16.93;100.00
48846;BME280;34665;51.886;5.436;2023-02-02T02:42:52;101962.25;;;16.26;100.00
48846;BME280;34665;51.886;5.436;2023-02-02T02:45:20;101962.22;;;17.00;100.00
48846;BME280;34665;51.886;5.436;2023-02-02T02:47:46;101966.72;;;17.33;100.00
48846;BME280;34665;51.886;5.436;2023-02-02T02:50:13;101958.28;;;16.56;100.00
48846;BME280;34665;51.886;5.436;2023-02-02T02:52:39;101960.38;;;16.47;100.00
48846;BME280;34665;51.886;5.436;2023-02-02T02:55:06;101956.00;;;16.46;100.00
48846;BME280;34665;51.886;5.436;2023-02-02T03:10:40;101940.44;;;16.34;100.00
48846;BME280;34665;51.886;5.436;2023-02-02T03:13:09;101943.53;;;16.72;100.00
48846;BME280;34665;51.886;5.436;2023-02-02T03:15:39;101936.91;;;16.14;100.00
48846;BME280;34665;51.886;5.436;2023-02-02T03:18:05;101923.19;;;16.09;100.00
48846;BME280;34665;51.886;5.436;2023-02-02T03:20:30;101925.25;;;15.93;100.00
48846;BME280;34665;51.886;5.436;2023-02-02T03:22:56;101919.69;;;16.22;100.00
48846;BME280;34665;51.886;5.436;2023-02-02T03:25:21;101927.09;;;17.00;100.00
48846;BME280;34665;51.886;5.436;2023-02-02T03:27:48;101924.78;;;17.11;99.11
48846;BME280;34665;51.886;5.436;2023-02-02T03:30:13;101938.16;;;16.25;100.00
48846;BME280;34665;51.886;5.436;2023-02-02T03:32:40;101942.91;;;16.76;100.00
48846;BME280;34665;51.886;5.436;2023-02-02T03:35:06;101954.97;;;16.54;100.00
48846;BME280;34665;51.886;5.436;2023-02-02T03:37:33;101964.31;;;16.44;100.00
48846;BME280;34665;51.886;5.436;2023-02-02T03:39:58;101968.88;;;16.24;100.00
48846;BME280;34665;51.886;5.436;2023-02-02T03:42:24;101977.41;;;16.88;100.00
48846;BME280;34665;51.886;5.436;2023-02-02T03:44:50;101980.94;;;16.55;100.00
48846;BME280;34665;51.886;5.436;2023-02-02T03:47:15;101982.19;;;16.52;100.00
48846;BME280;34665;51.886;5.436;2023-02-02T03:49:41;101993.75;;;16.12;100.00
48846;BME280;34665;51.886;5.436;2023-02-02T03:52:06;101980.34;;;15.70;100.00
48846;BME280;34665;51.886;5.436;2023-02-02T03:54:32;101986.53;;;16.26;100.00
48846;BME280;34665;51.886;5.436;2023-02-02T03:56:57;101983.59;;;16.14;100.00
48846;BME280;34665;51.886;5.436;2023-02-02T03:59:23;101984.66;;;16.27;100.00
48846;BME280;34665;51.886;5.436;2023-02-02T04:01:48;101979.47;;;16.18;100.00
48846;BME280;34665;51.886;5.436;2023-02-02T04:04:14;101985.06;;;16.24;100.00
48846;BME280;34665;51.886;5.436;2023-02-02T04:06:40;101987.09;;;16.01;100.00
48846;BME280;34665;51.886;5.436;2023-02-02T04:09:05;101978.38;;;16.06;100.00
48846;BME280;34665;51.886;5.436;2023-02-02T04:11:30;101976.84;;;15.83;100.00
48846;BME280;34665;51.886;5.436;2023-02-02T04:13:56;101980.88;;;16.01;100.00
48846;BME280;34665;51.886;5.436;2023-02-02T04:16:21;101980.53;;;16.78;100.00
48846;BME280;34665;51.886;5.436;2023-02-02T04:18:47;101971.16;;;16.54;100.00
48846;BME280;34665;51.886;5.436;2023-02-02T04:21:13;101969.31;;;16.54;100.00
48846;BME280;34665;51.886;5.436;2023-02-02T04:23:38;101963.88;;;16.07;100.00
48846;BME280;34665;51.886;5.436;2023-02-02T04:26:04;101965.78;;;16.40;100.00
48846;BME280;34665;51.886;5.436;2023-02-02T04:28:29;101968.66;;;16.59;100.00
48846;BME280;34665;51.886;5.436;2023-02-02T04:30:55;101955.38;;;16.17;100.00
48846;BME280;34665;51.886;5.436;2023-02-02T04:33:22;101961.22;;;16.27;100.00
48846;BME280;34665;51.886;5.436;2023-02-02T04:35:48;101972.06;;;15.72;100.00
48846;BME280;34665;51.886;5.436;2023-02-02T04:38:14;101976.75;;;16.25;100.00
48846;BME280;34665;51.886;5.436;2023-02-02T04:40:42;101971.38;;;16.32;100.00
48846;BME280;34665;51.886;5.436;2023-02-02T04:43:09;101966.00;;;16.52;100.00
48846;BME280;34665;51.886;5.436;2023-02-02T04:45:34;101972.63;;;16.56;100.00
48846;BME280;34665;51.886;5.436;2023-02-02T04:48:01;101969.28;;;16.14;100.00
48846;BME280;34665;51.886;5.436;2023-02-02T04:50:27;101973.03;;;16.73;100.00
48846;BME280;34665;51.886;5.436;2023-02-02T04:52:52;101981.94;;;16.94;100.00
48846;BME280;34665;51.886;5.436;2023-02-02T04:55:18;101981.75;;;16.28;100.00
48846;BME280;34665;51.886;5.436;2023-02-02T04:57:43;101974.03;;;16.05;100.00
48846;BME280;34665;51.886;5.436;2023-02-02T05:00:09;101968.69;;;16.45;100.00
48846;BME280;34665;51.886;5.436;2023-02-02T05:02:38;101965.94;;;16.05;100.00
48846;BME280;34665;51.886;5.436;2023-02-02T05:05:06;101984.47;;;16.42;100.00
48846;BME280;34665;51.886;5.436;2023-02-02T05:07:32;101981.69;;;16.01;100.00
48846;BME280;34665;51.886;5.436;2023-02-02T05:09:58;101975.53;;;16.48;100.00
48846;BME280;34665;51.886;5.436;2023-02-02T05:12:23;101973.66;;;16.35;100.00
48846;BME280;34665;51.886;5.436;2023-02-02T05:14:49;101974.06;;;16.32;100.00
48846;BME280;34665;51.886;5.436;2023-02-02T05:17:14;101994.22;;;16.36;100.00
48846;BME280;34665;51.886;5.436;2023-02-02T05:19:40;101996.22;;;16.00;100.00
48846;BME280;34665;51.886;5.436;2023-02-02T05:22:06;102001.28;;;16.30;100.00
48846;BME280;34665;51.886;5.436;2023-02-02T05:24:32;101998.31;;;16.05;100.00
48846;BME280;34665;51.886;5.436;2023-02-02T05:26:57;102009.19;;;16.99;100.00
48846;BME280;34665;51.886;5.436;2023-02-02T05:29:26;102007.72;;;16.76;100.00
48846;BME280;34665;51.886;5.436;2023-02-02T05:31:52;101999.44;;;16.65;100.00
48846;BME280;34665;51.886;5.436;2023-02-02T05:34:18;102012.91;;;16.31;100.00
48846;BME280;34665;51.886;5.436;2023-02-02T05:36:43;102006.47;;;16.92;100.00
48846;BME280;34665;51.886;5.436;2023-02-02T05:39:09;102010.44;;;17.17;100.00
48846;BME280;34665;51.886;5.436;2023-02-02T05:41:35;102006.06;;;16.42;100.00
48846;BME280;34665;51.886;5.436;2023-02-02T05:44:01;101997.94;;;17.16;100.00
48846;BME280;34665;51.886;5.436;2023-02-02T05:46:27;101995.84;;;17.25;99.50
48846;BME280;34665;51.886;5.436;2023-02-02T05:48:53;102004.19;;;16.83;100.00
48846;BME280;34665;51.886;5.436;2023-02-02T05:54:15;101994.00;;;16.58;100.00
48846;BME280;34665;51.886;5.436;2023-02-02T05:56:46;101990.69;;;16.62;100.00
48846;BME280;34665;51.886;5.436;2023-02-02T05:59:12;101981.56;;;16.63;100.00
48846;BME280;34665;51.886;5.436;2023-02-02T06:01:37;101977.63;;;16.39;100.00
48846;BME280;34665;51.886;5.436;2023-02-02T06:04:03;101998.00;;;16.62;100.00
48846;BME280;34665;51.886;5.436;2023-02-02T06:06:28;101997.97;;;16.75;100.00
48846;BME280;34665;51.886;5.436;2023-02-02T06:08:53;102017.88;;;16.20;100.00
48846;BME280;34665;51.886;5.436;2023-02-02T06:11:19;101990.28;;;16.72;100.00
48846;BME280;34665;51.886;5.436;2023-02-02T06:13:45;102002.34;;;16.90;100.00
48846;BME280;34665;51.886;5.436;2023-02-02T06:16:10;102006.47;;;16.32;100.00
48846;BME280;34665;51.886;5.436;2023-02-02T06:18:36;101995.47;;;16.81;100.00
48846;BME280;34665;51.886;5.436;2023-02-02T06:21:03;102002.88;;;16.11;100.00
48846;BME280;34665;51.886;5.436;2023-02-02T06:23:31;102000.16;;;15.91;100.00
48846;BME280;34665;51.886;5.436;2023-02-02T06:25:58;101994.66;;;16.80;100.00
48846;BME280;34665;51.886;5.436;2023-02-02T06:28:24;102000.44;;;16.90;100.00
48846;BME280;34665;51.886;5.436;2023-02-02T06:30:49;101992.97;;;16.45;100.00
48846;BME280;34665;51.886;5.436;2023-02-02T06:33:15;102007.28;;;16.26;100.00
48846;BME280;34665;51.886;5.436;2023-02-02T06:35:41;102016.25;;;16.60;100.00
48846;BME280;34665;51.886;5.436;2023-02-02T06:38:06;102019.16;;;16.78;100.00
48846;BME280;34665;51.886;5.436;2023-02-02T06:40:32;102024.56;;;16.78;100.00
48846;BME280;34665;51.886;5.436;2023-02-02T06:43:00;102034.97;;;16.68;100.00
48846;BME280;34665;51.886;5.436;2023-02-02T06:45:27;102024.06;;;16.14;100.00
48846;BME280;34665;51.886;5.436;2023-02-02T06:47:57;102028.66;;;16.14;100.00
48846;BME280;34665;51.886;5.436;2023-02-02T06:50:25;102029.94;;;16.38;100.00
48846;BME280;34665;51.886;5.436;2023-02-02T06:52:51;102038.84;;;16.32;100.00
48846;BME280;34665;51.886;5.436;2023-02-02T06:55:18;102035.13;;;16.26;100.00
48846;BME280;34665;51.886;5.436;2023-02-02T06:57:44;102036.91;;;15.99;100.00
48846;BME280;34665;51.886;5.436;2023-02-02T07:00:10;102038.44;;;16.35;100.00
48846;BME280;34665;51.886;5.436;2023-02-02T07:02:37;102035.97;;;16.54;100.00
48846;BME280;34665;51.886;5.436;2023-02-02T07:05:03;102040.72;;;16.31;100.00
48846;BME280;34665;51.886;5.436;2023-02-02T07:07:32;102046.38;;;16.50;100.00
48846;BME280;34665;51.886;5.436;2023-02-02T07:09:58;102041.84;;;15.88;100.00
48846;BME280;34665;51.886;5.436;2023-02-02T07:12:24;102046.72;;;16.27;100.00
48846;BME280;34665;51.886;5.436;2023-02-02T07:14:51;102041.06;;;15.95;100.00
48846;BME280;34665;51.886;5.436;2023-02-02T07:17:16;102047.75;;;16.19;100.00
48846;BME280;34665;51.886;5.436;2023-02-02T07:19:42;102038.34;;;15.95;100.00
48846;BME280;34665;51.886;5.436;2023-02-02T07:22:07;102041.50;;;16.12;100.00
48846;BME280;34665;51.886;5.436;2023-02-02T07:24:32;102051.03;;;16.01;100.00
48846;BME280;34665;51.886;5.436;2023-02-02T07:26:58;102050.66;;;16.11;100.00
48846;BME280;34665;51.886;5.436;2023-02-02T07:29:23;102051.13;;;15.44;100.00
48846;BME280;34665;51.886;5.436;2023-02-02T07:31:49;102057.72;;;16.18;100.00
48846;BME280;34665;51.886;5.436;2023-02-02T07:34:15;102060.91;;;16.56;100.00
48846;BME280;34665;51.886;5.436;2023-02-02T07:36:41;102058.59;;;15.84;100.00
48846;BME280;34665;51.886;5.436;2023-02-02T07:39:07;102063.16;;;16.39;100.00
48846;BME280;34665;51.886;5.436;2023-02-02T07:41:34;102069.84;;;16.49;100.00
48846;BME280;34665;51.886;5.436;2023-02-02T07:44:00;102070.03;;;16.41;100.00
48846;BME280;34665;51.886;5.436;2023-02-02T07:46:26;102078.78;;;16.57;100.00
48846;BME280;34665;51.886;5.436;2023-02-02T07:48:53;102069.66;;;16.71;100.00
48846;BME280;34665;51.886;5.436;2023-02-02T07:51:20;102082.09;;;16.52;100.00
48846;BME280;34665;51.886;5.436;2023-02-02T07:53:48;102089.50;;;16.30;100.00
48846;BME280;34665;51.886;5.436;2023-02-02T07:56:17;102088.47;;;16.31;100.00
48846;BME280;34665;51.886;5.436;2023-02-02T07:58:43;102085.97;;;16.23;100.00
48846;BME280;34665;51.886;5.436;2023-02-02T08:01:11;102087.53;;;16.72;100.00
48846;BME280;34665;51.886;5.436;2023-02-02T08:03:37;102093.94;;;16.58;100.00
48846;BME280;34665;51.886;5.436;2023-02-02T08:08:48;102101.59;;;16.47;100.00
48846;BME280;34665;51.886;5.436;2023-02-02T08:11:15;102097.50;;;16.65;100.00
48846;BME280;34665;51.886;5.436;2023-02-02T08:13:42;102095.63;;;16.79;100.00
48846;BME280;34665;51.886;5.436;2023-02-02T08:16:08;102094.50;;;16.26;100.00
48846;BME280;34665;51.886;5.436;2023-02-02T08:18:35;102094.00;;;16.09;100.00
48846;BME280;34665;51.886;5.436;2023-02-02T08:21:01;102100.59;;;16.69;100.00
48846;BME280;34665;51.886;5.436;2023-02-02T08:23:27;102111.00;;;16.85;100.00
48846;BME280;34665;51.886;5.436;2023-02-02T08:25:54;102111.03;;;16.92;100.00
48846;BME280;34665;51.886;5.436;2023-02-02T08:28:29;102106.63;;;16.71;100.00
48846;BME280;34665;51.886;5.436;2023-02-02T08:30:54;102119.59;;;16.27;100.00
48846;BME280;34665;51.886;5.436;2023-02-02T08:33:20;102128.94;;;16.24;100.00
48846;BME280;34665;51.886;5.436;2023-02-02T08:35:46;102118.63;;;16.41;100.00
48846;BME280;34665;51.886;5.436;2023-02-02T08:38:11;102125.59;;;17.11;100.00
48846;BME280;34665;51.886;5.436;2023-02-02T08:40:37;102130.50;;;16.60;100.00
48846;BME280;34665;51.886;5.436;2023-02-02T08:43:03;102137.81;;;16.80;100.00
48846;BME280;34665;51.886;5.436;2023-02-02T08:45:29;102149.28;;;17.02;100.00
48846;BME280;34665;51.886;5.436;2023-02-02T08:47:55;102146.91;;;16.59;100.00
48846;BME280;34665;51.886;5.436;2023-02-02T08:50:20;102155.56;;;17.10;100.00
48846;BME280;34665;51.886;5.436;2023-02-02T08:52:46;102148.91;;;16.30;100.00
48846;BME280;34665;51.886;5.436;2023-02-02T08:55:11;102153.66;;;16.97;100.00
48846;BME280;34665;51.886;5.436;2023-02-02T08:57:37;102158.47;;;17.15;100.00
48846;BME280;34665;51.886;5.436;2023-02-02T09:00:04;102163.22;;;16.24;100.00
48846;BME280;34665;51.886;5.436;2023-02-02T09:02:31;102166.72;;;16.86;100.00
48846;BME280;34665;51.886;5.436;2023-02-02T09:04:56;102176.94;;;17.04;100.00
48846;BME280;34665;51.886;5.436;2023-02-02T09:07:21;102177.75;;;16.85;100.00
48846;BME280;34665;51.886;5.436;2023-02-02T09:09:47;102177.78;;;17.25;100.00
48846;BME280;34665;51.886;5.436;2023-02-02T09:12:12;102181.19;;;16.58;100.00
48846;BME280;34665;51.886;5.436;2023-02-02T09:14:38;102183.47;;;16.55;100.00
48846;BME280;34665;51.886;5.436;2023-02-02T09:17:03;102179.22;;;16.32;100.00
48846;BME280;34665;51.886;5.436;2023-02-02T09:19:29;102179.03;;;17.09;100.00
48846;BME280;34665;51.886;5.436;2023-02-02T09:21:55;102176.56;;;17.08;100.00
48846;BME280;34665;51.886;5.436;2023-02-02T09:24:20;102184.47;;;17.23;100.00
48846;BME280;34665;51.886;5.436;2023-02-02T09:26:45;102195.44;;;17.75;99.68
48846;BME280;34665;51.886;5.436;2023-02-02T09:29:14;102193.81;;;17.20;100.00
48846;BME280;34665;51.886;5.436;2023-02-02T09:31:40;102205.03;;;17.64;98.39
48846;BME280;34665;51.886;5.436;2023-02-02T09:34:08;102203.97;;;18.58;95.41
48846;BME280;34665;51.886;5.436;2023-02-02T09:36:34;102201.28;;;18.51;94.95
48846;BME280;34665;51.886;5.436;2023-02-02T09:39:00;102210.63;;;18.55;92.08
48846;BME280;34665;51.886;5.436;2023-02-02T09:47:05;102232.56;;;18.86;91.98
48846;BME280;34665;51.886;5.436;2023-02-02T09:50:01;102234.16;;;17.69;95.33
48846;BME280;34665;51.886;5.436;2023-02-02T09:52:33;102227.09;;;17.20;99.01
48846;BME280;34665;51.886;5.436;2023-02-02T09:55:20;102230.41;;;17.83;96.50
48846;BME280;34665;51.886;5.436;2023-02-02T09:57:56;102230.22;;;17.65;97.63
48846;BME280;34665;51.886;5.436;2023-02-02T10:00:29;102235.31;;;18.33;95.60
48846;BME280;34665;51.886;5.436;2023-02-02T10:03:08;102233.75;;;17.52;99.25
48846;BME280;34665;51.886;5.436;2023-02-02T10:06:20;102240.81;;;17.73;97.43
48846;BME280;34665;51.886;5.436;2023-02-02T10:08:47;102233.75;;;17.38;100.00
48846;BME280;34665;51.886;5.436;2023-02-02T10:11:34;102235.00;;;17.36;100.00
48846;BME280;34665;51.886;5.436;2023-02-02T10:14:07;102226.94;;;16.73;100.00
48846;BME280;34665;51.886;5.436;2023-02-02T10:16:38;102242.28;;;17.42;100.00
48846;BME280;34665;51.886;5.436;2023-02-02T10:19:09;102239.97;;;18.06;99.66
48846;BME280;34665;51.886;5.436;2023-02-02T10:21:51;102252.84;;;18.31;98.66
48846;BME280;34665;51.886;5.436;2023-02-02T10:24:23;102251.53;;;18.40;98.33
48846;BME280;34665;51.886;5.436;2023-02-02T10:26:55;102242.47;;;17.74;98.01
48846;BME280;34665;51.886;5.436;2023-02-02T10:32:13;102256.59;;;18.16;98.75
48846;BME280;34665;51.886;5.436;2023-02-02T10:37:39;102255.63;;;18.63;94.72
48846;BME280;34665;51.886;5.436;2023-02-02T10:40:46;102249.50;;;18.22;95.66
48846;BME280;34665;51.886;5.436;2023-02-02T10:46:23;102272.88;;;17.96;97.33
48846;BME280;34665;51.886;5.436;2023-02-02T10:49:13;102266.59;;;17.35;99.94
48846;BME280;34665;51.886;5.436;2023-02-02T10:51:39;102283.44;;;18.31;96.54
48846;BME280;34665;51.886;5.436;2023-02-02T10:54:23;102274.31;;;17.78;97.71
48846;BME280;34665;51.886;5.436;2023-02-02T10:56:55;102268.31;;;17.56;98.73
48846;BME280;34665;51.886;5.436;2023-02-02T10:59:35;102269.72;;;17.32;99.70
48846;BME280;34665;51.886;5.436;2023-02-02T11:02:09;102266.81;;;17.74;98.54
48846;BME280;34665;51.886;5.436;2023-02-02T11:04:34;102276.16;;;18.32;95.33
48846;BME280;34665;51.886;5.436;2023-02-02T11:07:19;102265.75;;;18.29;95.14
48846;BME280;34665;51.886;5.436;2023-02-02T11:09:45;102258.69;;;18.08;95.38
48846;BME280;34665;51.886;5.436;2023-02-02T11:12:41;102259.00;;;18.52;94.44
48846;BME280;34665;51.886;5.436;2023-02-02T11:15:22;102257.84;;;18.27;92.65
48846;BME280;34665;51.886;5.436;2023-02-02T11:17:49;102260.16;;;18.24;93.65
48846;BME280;34665;51.886;5.436;2023-02-02T11:20:32;102262.88;;;18.10;94.12
48846;BME280;34665;51.886;5.436;2023-02-02T11:23:00;102266.38;;;18.17;93.86
48846;BME280;34665;51.886;5.436;2023-02-02T11:25:30;102267.78;;;18.47;91.89
48846;BME280;34665;51.886;5.436;2023-02-02T11:28:20;102258.63;;;18.41;93.09
48846;BME280;34665;51.886;5.436;2023-02-02T11:30:46;102264.13;;;17.74;95.38
48846;BME280;34665;51.886;5.436;2023-02-02T11:33:29;102261.03;;;17.77;94.48
48846;BME280;34665;51.886;5.436;2023-02-02T11:36:18;102256.19;;;18.19;92.61
48846;BME280;34665;51.886;5.436;2023-02-02T11:38:44;102266.19;;;18.12;90.90
48846;BME280;34665;51.886;5.436;2023-02-02T11:41:10;102257.06;;;17.32;97.10
48846;BME280;34665;51.886;5.436;2023-02-02T11:43:50;102249.34;;;18.10;93.41
48846;BME280;34665;51.886;5.436;2023-02-02T11:46:27;102246.84;;;17.21;96.08
48846;BME280;34665;51.886;5.436;2023-02-02T11:49:00;102259.97;;;17.65;94.30
48846;BME280;34665;51.886;5.436;2023-02-02T11:51:28;102248.09;;;17.52;94.04
48846;BME280;34665;51.886;5.436;2023-02-02T11:54:02;102255.13;;;18.20;92.40
48846;BME280;34665;51.886;5.436;2023-02-02T11:56:31;102261.13;;;18.36;90.58
48846;BME280;34665;51.886;5.436;2023-02-02T11:58:57;102256.84;;;17.47;92.68
48846;BME280;34665;51.886;5.436;2023-02-02T12:01:30;102262.50;;;17.66;93.56
48846;BME280;34665;51.886;5.436;2023-02-02T12:04:01;102265.47;;;18.51;90.58
48846;BME280;34665;51.886;5.436;2023-02-02T12:06:35;102258.16;;;18.58;90.86
48846;BME280;34665;51.886;5.436;2023-02-02T12:09:10;102248.53;;;17.69;96.05
48846;BME280;34665;51.886;5.436;2023-02-02T12:12:07;102244.97;;;17.15;98.07
48846;BME280;34665;51.886;5.436;2023-02-02T12:14:43;102255.38;;;17.31;98.48
48846;BME280;34665;51.886;5.436;2023-02-02T12:17:42;102255.41;;;17.65;96.99
48846;BME280;34665;51.886;5.436;2023-02-02T12:20:32;102251.03;;;17.84;95.25
48846;BME280;34665;51.886;5.436;2023-02-02T12:26:08;102259.97;;;17.78;96.01
48846;BME280;34665;51.886;5.436;2023-02-02T12:34:30;102252.47;;;17.19;99.23
48846;BME280;34665;51.886;5.436;2023-02-02T12:48:25;102251.38;;;17.00;100.00
48846;BME280;34665;51.886;5.436;2023-02-02T12:54:01;102253.09;;;17.42;100.00
48846;BME280;34665;51.886;5.436;2023-02-02T12:59:11;102255.69;;;16.88;100.00
48846;BME280;34665;51.886;5.436;2023-02-02T13:10:08;102243.53;;;17.32;100.00
48846;BME280;34665;51.886;5.436;2023-02-02T13:12:44;102248.31;;;16.19;100.00
48846;BME280;34665;51.886;5.436;2023-02-02T13:15:16;102246.59;;;16.12;100.00
48846;BME280;34665;51.886;5.436;2023-02-02T13:17:53;102259.72;;;16.63;100.00
48846;BME280;34665;51.886;5.436;2023-02-02T13:20:40;102243.22;;;16.03;100.00
48846;BME280;34665;51.886;5.436;2023-02-02T13:23:26;102231.94;;;16.28;100.00
48846;BME280;34665;51.886;5.436;2023-02-02T13:26:00;102240.31;;;15.76;100.00
48846;BME280;34665;51.886;5.436;2023-02-02T13:28:33;102230.72;;;15.95;100.00
48846;BME280;34665;51.886;5.436;2023-02-02T13:31:05;102234.41;;;16.23;100.00
48846;BME280;34665;51.886;5.436;2023-02-02T13:33:36;102247.16;;;16.36;100.00
48846;BME280;34665;51.886;5.436;2023-02-02T13:36:09;102236.31;;;16.29;100.00
48846;BME280;34665;51.886;5.436;2023-02-02T13:38:39;102242.28;;;16.59;100.00
48846;BME280;34665;51.886;5.436;2023-02-02T13:41:09;102244.09;;;16.45;100.00
48846;BME280;34665;51.886;5.436;2023-02-02T13:46:49;102246.47;;;17.44;100.00
48846;BME280;34665;51.886;5.436;2023-02-02T13:49:24;102251.22;;;16.67;100.00
48846;BME280;34665;51.886;5.436;2023-02-02T13:55:03;102247.22;;;16.14;100.00
48846;BME280;34665;51.886;5.436;2023-02-02T14:00:25;102253.16;;;16.02;100.00
48846;BME280;34665;51.886;5.436;2023-02-02T14:02:58;102255.03;;;16.30;100.00
48846;BME280;34665;51.886;5.436;2023-02-02T14:05:28;102263.06;;;16.24;100.00
48846;BME280;34665;51.886;5.436;2023-02-02T14:08:01;102255.84;;;16.31;100.00
48846;BME280;34665;51.886;5.436;2023-02-02T14:10:37;102247.38;;;16.96;100.00
48846;BME280;34665;51.886;5.436;2023-02-02T14:15:38;102254.00;;;16.94;100.00
48846;BME280;34665;51.886;5.436;2023-02-02T14:18:05;102259.56;;;16.30;100.00
48846;BME280;34665;51.886;5.436;2023-02-02T14:20:48;102266.47;;;16.88;100.00
48846;BME280;34665;51.886;5.436;2023-02-02T14:23:53;102256.03;;;16.71;100.00
48846;BME280;34665;51.886;5.436;2023-02-02T14:26:49;102264.88;;;17.00;100.00
48846;BME280;34665;51.886;5.436;2023-02-02T14:31:55;102263.06;;;17.21;100.00
48846;BME280;34665;51.886;5.436;2023-02-02T14:45:39;102279.38;;;16.86;100.00
48846;BME280;34665;51.886;5.436;2023-02-02T14:55:50;102280.81;;;16.40;100.00
48846;BME280;34665;51.886;5.436;2023-02-02T15:01:01;102280.50;;;16.56;100.00
48846;BME280;34665;51.886;5.436;2023-02-02T15:06:12;102282.44;;;15.99;100.00
48846;BME280;34665;51.886;5.436;2023-02-02T15:08:39;102283.41;;;16.19;100.00
48846;BME280;34665;51.886;5.436;2023-02-02T15:11:06;102293.44;;;16.74;100.00